Time;durP1;ratioP1;P1;durP2;ratioP2;P2;SDS_P1;SDS_P2;PMS_P1;PMS_P2;Temp;Humidity;BMP_temperature;BMP_pressure;BME280_temperature;BME280_humidity;BME280_pressure;Samples;Min_cycle;Max_cycle;Signal;HPM_P1;HPM_P2
2022/07/11 00:04:21;;;;;;;;;;;;;;;14.80;100.00;100498.66;10503957;28;19931;-69
2022/07/11 00:09:24;;;;;;;;;;;;;;;14.85;100.00;100499.41;10503287;28;19925;-66
2022/07/11 00:14:29;;;;;;;;;;;;;;;14.86;100.00;100490.66;10503258;28;19929;-68
2022/07/11 00:19:32;;;;;;;;;;;;;;;14.78;100.00;100488.25;10502989;28;20274;-68
2022/07/11 00:24:35;;;;;;;;;;;;;;;14.61;100.00;100487.81;10502965;28;19924;-69
2022/07/11 00:29:39;;;;;;;;;;;;;;;14.59;100.00;100476.53;10502735;28;20274;-70
2022/07/11 00:34:42;;;;;;;;;;;;;;;14.77;100.00;100483.06;10502444;28;19939;-67
2022/07/11 00:39:45;;;;;;;;;;;;;;;14.74;100.00;100480.50;10502414;28;20253;-65
2022/07/11 00:44:49;;;;;;;;;;;;;;;14.65;100.00;100481.59;10502162;28;19938;-68
2022/07/11 00:49:53;;;;;;;;;;;;;;;14.48;100.00;100483.75;10501905;28;20334;-69
2022/07/11 00:54:56;;;;;;;;;;;;;;;14.53;100.00;100475.84;10501663;28;19924;-69
2022/07/11 01:00:01;;;;;;;;;;;;;;;14.44;100.00;100476.06;10501562;28;19934;-66
2022/07/11 01:05:04;;;;;;;;;;;;;;;14.58;100.00;100477.41;10501282;28;20338;-66
2022/07/11 01:10:08;;;;;;;;;;;;;;;14.60;100.00;100482.63;10501513;28;19925;-69
2022/07/11 01:15:14;;;;;;;;;;;;;;;14.47;100.00;100481.19;10501347;28;19925;-70
2022/07/11 01:20:17;;;;;;;;;;;;;;;14.45;100.00;100477.75;10501201;28;19924;-66
2022/07/11 01:25:30;;;;;;;;;;;;;;;14.43;100.00;100485.63;10501165;28;19924;-66
2022/07/11 01:30:34;;;;;;;;;;;;;;;14.50;100.00;100481.13;10501041;28;19975;-66
2022/07/11 01:35:37;;;;;;;;;;;;;;;14.53;100.00;100475.84;10501353;28;19935;-67
2022/07/11 01:40:41;;;;;;;;;;;;;;;14.48;100.00;100473.31;10500624;28;19934;-71
2022/07/11 01:45:44;;;;;;;;;;;;;;;14.59;100.00;100466.09;10500566;28;20256;-67
2022/07/11 01:50:47;;;;;;;;;;;;;;;14.48;100.00;100459.44;10500954;28;19931;-68
2022/07/11 01:55:52;;;;;;;;;;;;;;;14.65;100.00;100454.63;10500761;28;19939;-67
2022/07/11 02:01:15;;;;;;;;;;;;;;;14.61;100.00;100451.25;10500623;28;19931;-71
2022/07/11 02:06:18;;;;;;;;;;;;;;;14.59;100.00;100454.78;10500503;28;19928;-67
2022/07/11 02:11:23;;;;;;;;;;;;;;;14.54;100.00;100462.75;10500320;28;19935;-67
2022/07/11 02:16:26;;;;;;;;;;;;;;;14.57;100.00;100467.88;10505357;28;19925;-69
2022/07/11 02:21:29;;;;;;;;;;;;;;;14.56;100.00;100449.63;10507540;28;19944;-68
2022/07/11 02:26:34;;;;;;;;;;;;;;;14.49;100.00;100456.78;10507415;28;19935;-68
2022/07/11 02:31:37;;;;;;;;;;;;;;;14.46;100.00;100450.75;10507331;28;19934;-68
2022/07/11 02:36:39;;;;;;;;;;;;;;;14.44;100.00;100450.81;10507415;28;19935;-69
2022/07/11 02:41:44;;;;;;;;;;;;;;;14.37;100.00;100461.41;10507370;28;20215;-68
2022/07/11 02:46:47;;;;;;;;;;;;;;;14.35;100.00;100461.47;10506828;28;19925;-66
2022/07/11 02:51:50;;;;;;;;;;;;;;;14.39;100.00;100470.09;10506511;28;20010;-68
2022/07/11 02:56:54;;;;;;;;;;;;;;;14.33;100.00;100478.91;10506727;28;19934;-68
2022/07/11 03:01:57;;;;;;;;;;;;;;;14.30;100.00;100472.91;10506372;28;19925;-70
2022/07/11 03:07:00;;;;;;;;;;;;;;;14.26;100.00;100472.13;10506153;28;19935;-66
2022/07/11 03:12:06;;;;;;;;;;;;;;;14.31;100.00;100475.47;10505946;28;19924;-67
2022/07/11 03:17:08;;;;;;;;;;;;;;;14.41;100.00;100470.91;10505564;28;19925;-67
2022/07/11 03:22:12;;;;;;;;;;;;;;;14.54;100.00;100467.09;10505196;28;19935;-69
2022/07/11 03:27:16;;;;;;;;;;;;;;;14.52;100.00;100467.13;10505073;28;19924;-70
2022/07/11 03:32:20;;;;;;;;;;;;;;;14.54;100.00;100470.56;10505187;28;20364;-69
2022/07/11 03:37:30;;;;;;;;;;;;;;;14.54;100.00;100475.78;10504781;28;20345;-68
2022/07/11 03:42:34;;;;;;;;;;;;;;;14.68;100.00;100478.06;10504604;28;19924;-66
2022/07/11 03:47:38;;;;;;;;;;;;;;;14.57;100.00;100480.06;10504493;28;19924;-68
2022/07/11 03:52:41;;;;;;;;;;;;;;;14.56;100.00;100476.63;10504384;28;19924;-67
2022/07/11 03:57:46;;;;;;;;;;;;;;;14.61;100.00;100468.66;10504468;28;19936;-67
2022/07/11 04:02:49;;;;;;;;;;;;;;;14.73;100.00;100478.81;10503653;28;19924;-69
2022/07/11 04:07:53;;;;;;;;;;;;;;;14.80;100.00;100468.19;10503598;28;19931;-65
2022/07/11 04:12:57;;;;;;;;;;;;;;;14.91;99.36;100460.03;10503483;28;20246;-68
2022/07/11 04:18:00;;;;;;;;;;;;;;;15.15;97.17;100462.03;10503335;28;19928;-69
2022/07/11 04:23:03;;;;;;;;;;;;;;;15.02;95.90;100469.31;10502606;28;20371;-68
2022/07/11 04:28:07;;;;;;;;;;;;;;;15.12;95.95;100458.63;10502699;28;19935;-68
2022/07/11 04:33:10;;;;;;;;;;;;;;;15.31;95.48;100457.19;10502795;28;19929;-69
2022/07/11 04:38:21;;;;;;;;;;;;;;;15.36;95.25;100444.88;10501774;28;20429;-67
2022/07/11 04:43:25;;;;;;;;;;;;;;;15.41;96.18;100441.25;10502232;28;19935;-69
2022/07/11 04:48:28;;;;;;;;;;;;;;;15.30;98.40;100450.28;10502072;28;19931;-67
2022/07/11 04:53:31;;;;;;;;;;;;;;;15.23;100.00;100454.81;10501912;28;19924;-68
2022/07/11 04:58:35;;;;;;;;;;;;;;;15.10;100.00;100457.81;10501736;28;20264;-68
2022/07/11 05:03:38;;;;;;;;;;;;;;;15.20;100.00;100465.38;10501612;28;19924;-67
2022/07/11 05:08:42;;;;;;;;;;;;;;;15.38;100.00;100461.38;10501306;28;19950;-66
2022/07/11 05:13:46;;;;;;;;;;;;;;;15.36;100.00;100468.44;10501328;28;19942;-68
2022/07/11 05:18:49;;;;;;;;;;;;;;;15.34;100.00;100486.75;10501488;28;19924;-65
2022/07/11 05:23:52;;;;;;;;;;;;;;;15.35;100.00;100479.75;10501039;28;19928;-68
2022/07/11 05:28:56;;;;;;;;;;;;;;;15.39;100.00;100477.03;10501062;28;19924;-67
2022/07/11 05:33:59;;;;;;;;;;;;;;;15.48;100.00;100471.56;10500910;28;19943;-69
2022/07/11 05:39:02;;;;;;;;;;;;;;;15.60;100.00;100492.16;10501114;28;19924;-67
2022/07/11 05:44:07;;;;;;;;;;;;;;;15.61;100.00;100491.25;10500866;28;20245;-67
2022/07/11 05:49:09;;;;;;;;;;;;;;;15.62;100.00;100494.72;10503980;28;20261;-72
2022/07/11 05:54:13;;;;;;;;;;;;;;;15.51;100.00;100488.94;10508733;28;19924;-70
2022/07/11 05:59:17;;;;;;;;;;;;;;;15.34;100.00;100494.59;10508612;28;19939;-69
2022/07/11 06:04:20;;;;;;;;;;;;;;;15.35;100.00;100493.72;10508399;28;19931;-66
2022/07/11 06:09:23;;;;;;;;;;;;;;;15.45;100.00;100502.19;10508077;28;19924;-68
2022/07/11 06:14:28;;;;;;;;;;;;;;;15.46;100.00;100501.31;10508113;28;19931;-68
2022/07/11 06:19:31;;;;;;;;;;;;;;;15.46;100.00;100504.75;10507405;28;19928;-66
2022/07/11 06:24:33;;;;;;;;;;;;;;;15.41;100.00;100509.25;10508005;28;19925;-68
2022/07/11 06:29:38;;;;;;;;;;;;;;;15.33;100.00;100511.19;10507266;28;19924;-69
2022/07/11 06:34:44;;;;;;;;;;;;;;;15.39;100.00;100512.78;10507189;28;19934;-66
2022/07/11 06:39:47;;;;;;;;;;;;;;;15.60;100.00;100507.84;10506682;28;20272;-67
2022/07/11 06:44:52;;;;;;;;;;;;;;;15.49;100.00;100509.06;10506990;28;19924;-70
2022/07/11 06:49:55;;;;;;;;;;;;;;;15.54;100.00;100502.81;10506702;28;19965;-68
2022/07/11 06:54:58;;;;;;;;;;;;;;;15.54;100.00;100499.31;10506817;28;19924;-65
2022/07/11 07:00:03;;;;;;;;;;;;;;;15.53;100.00;100498.44;10505636;28;19928;-70
2022/07/11 07:05:07;;;;;;;;;;;;;;;15.64;100.00;100496.41;10506066;28;19935;-68
2022/07/11 07:10:15;;;;;;;;;;;;;;;15.62;100.00;100500.81;10506082;28;19935;-68
2022/07/11 07:15:19;;;;;;;;;;;;;;;15.60;100.00;100492.16;10505848;28;19935;-68
2022/07/11 07:20:22;;;;;;;;;;;;;;;15.69;100.00;100501.50;10505341;28;19924;-66
2022/07/11 07:25:25;;;;;;;;;;;;;;;15.66;100.00;100497.22;10505378;28;20223;-68
2022/07/11 07:30:30;;;;;;;;;;;;;;;15.83;100.00;100494.09;10505206;28;19952;-71
2022/07/11 07:35:33;;;;;;;;;;;;;;;15.95;100.00;100492.00;10504950;28;19924;-69
2022/07/11 07:40:36;;;;;;;;;;;;;;;15.94;100.00;100499.91;10504800;28;20244;-68
2022/07/11 07:45:40;;;;;;;;;;;;;;;15.89;100.00;100499.19;10504578;28;20246;-69
2022/07/11 07:50:43;;;;;;;;;;;;;;;15.94;100.00;100492.91;10504296;28;19931;-66
2022/07/11 07:55:46;;;;;;;;;;;;;;;15.93;100.00;100491.19;10504110;28;19935;-68
2022/07/11 08:06:11;;;;;;;;;;;;;;;16.22;98.90;100492.94;10503793;28;19935;-68
2022/07/11 08:11:14;;;;;;;;;;;;;;;16.23;100.00;100481.53;10502558;28;20396;-68
2022/07/11 08:16:34;;;;;;;;;;;;;;;16.16;100.00;100483.50;10503248;28;19924;-71
2022/07/11 08:21:37;;;;;;;;;;;;;;;16.04;100.00;100491.72;10502700;28;19925;-68
2022/07/11 08:26:41;;;;;;;;;;;;;;;16.01;100.00;100502.25;10502779;28;19935;-67
2022/07/11 08:31:45;;;;;;;;;;;;;;;16.01;100.00;100504.88;10502793;28;19935;-67
2022/07/11 08:36:48;;;;;;;;;;;;;;;16.15;100.00;100499.25;10502327;28;19935;-67
2022/07/11 08:41:51;;;;;;;;;;;;;;;16.18;100.00;100492.16;10502062;28;19924;-66
2022/07/11 08:46:57;;;;;;;;;;;;;;;16.38;100.00;100488.03;10502110;28;19931;-69
2022/07/11 08:52:00;;;;;;;;;;;;;;;16.37;100.00;100492.44;10502153;28;19974;-67
2022/07/11 08:57:04;;;;;;;;;;;;;;;16.32;100.00;100493.50;10501608;28;19928;-66
2022/07/11 09:02:09;;;;;;;;;;;;;;;16.48;100.00;100489.53;10501371;28;20354;-70
2022/07/11 09:07:13;;;;;;;;;;;;;;;16.63;99.34;100495.13;10501520;28;20239;-64
2022/07/11 09:12:16;;;;;;;;;;;;;;;16.69;99.10;100494.03;10501661;28;19924;-67
2022/07/11 09:17:27;;;;;;;;;;;;;;;16.71;98.36;100489.63;10501201;28;19934;-69
2022/07/11 09:27:51;;;;;;;;;;;;;;;17.38;96.25;100485.56;10501073;28;19935;-69
2022/07/11 09:32:57;;;;;;;;;;;;;;;17.37;93.17;100486.44;10501028;28;20304;-66
2022/07/11 09:38:02;;;;;;;;;;;;;;;17.34;94.70;100480.41;10500956;28;19925;-67
2022/07/11 09:43:06;;;;;;;;;;;;;;;17.37;94.81;100473.34;10500497;28;20028;-68
2022/07/11 09:48:11;;;;;;;;;;;;;;;17.75;94.38;100478.94;10500571;28;19934;-70
2022/07/11 09:53:15;;;;;;;;;;;;;;;17.96;94.59;100465.00;10500595;28;19924;-68
2022/07/11 09:58:18;;;;;;;;;;;;;;;18.36;90.50;100464.28;10500609;28;19931;-68
2022/07/11 10:03:23;;;;;;;;;;;;;;;19.02;87.19;100463.28;10500311;28;19934;-67
2022/07/11 10:08:46;;;;;;;;;;;;;;;20.63;74.52;100461.91;10500348;28;19930;-68
2022/07/11 10:13:50;;;;;;;;;;;;;;;30.86;43.96;100411.34;10499991;28;19970;-68
2022/07/11 10:19:02;;;;;;;;;;;;;;;27.04;50.25;100415.75;10500372;28;19928;-68
2022/07/11 10:24:16;;;;;;;;;;;;;;;22.53;63.13;100435.78;10499552;28;20265;-68
2022/07/11 10:29:24;;;;;;;;;;;;;;;22.20;65.10;100424.47;10500125;28;19925;-64
2022/07/11 10:34:29;;;;;;;;;;;;;;;21.04;65.44;100435.22;10500291;28;19924;-71
2022/07/11 10:39:34;;;;;;;;;;;;;;;20.88;64.62;100436.94;10507260;28;19935;-65
2022/07/11 10:44:51;;;;;;;;;;;;;;;20.90;65.94;100443.84;10507124;28;19935;-67
2022/07/11 10:49:58;;;;;;;;;;;;;;;20.68;65.24;100437.94;10507217;28;20414;-70
2022/07/11 10:55:08;;;;;;;;;;;;;;;20.36;63.15;100436.88;10506556;28;19925;-67
2022/07/11 11:00:13;;;;;;;;;;;;;;;20.11;64.53;100440.75;10506549;28;19924;-68
2022/07/11 11:05:37;;;;;;;;;;;;;;;19.85;65.41;100434.06;10506080;28;19946;-65
2022/07/11 11:10:49;;;;;;;;;;;;;;;19.41;64.56;100448.44;10506117;28;19924;-67
2022/07/11 11:15:53;;;;;;;;;;;;;;;19.23;65.90;100451.81;10505984;28;19924;-68
2022/07/11 11:21:12;;;;;;;;;;;;;;;19.17;66.72;100462.63;10505307;28;19964;-66
2022/07/11 11:26:17;;;;;;;;;;;;;;;19.39;66.34;100456.41;10505440;28;19924;-70
2022/07/11 11:31:20;;;;;;;;;;;;;;;19.57;64.36;100459.97;10505395;28;19952;-68
2022/07/11 11:36:24;;;;;;;;;;;;;;;20.09;63.66;100464.53;10504930;28;19924;-65
2022/07/11 11:41:29;;;;;;;;;;;;;;;20.14;62.85;100459.06;10504553;28;19924;-66
2022/07/11 11:46:33;;;;;;;;;;;;;;;20.00;63.25;100456.22;10504363;28;20261;-68
2022/07/11 11:51:37;;;;;;;;;;;;;;;20.34;63.76;100454.59;10504284;28;19931;-66
2022/07/11 11:56:41;;;;;;;;;;;;;;;20.52;63.13;100443.13;10504421;28;19935;-67
2022/07/11 12:01:46;;;;;;;;;;;;;;;20.56;60.70;100434.13;10504058;28;20369;-65
2022/07/11 12:06:50;;;;;;;;;;;;;;;20.91;60.82;100435.00;10503657;28;19925;-67
2022/07/11 12:17:12;;;;;;;;;;;;;;;21.56;60.68;100428.91;10502745;28;19947;-66
2022/07/11 12:22:15;;;;;;;;;;;;;;;21.87;58.12;100429.00;10502804;28;19924;-66
2022/07/11 12:27:20;;;;;;;;;;;;;;;22.06;59.10;100440.25;10502711;28;19925;-68
2022/07/11 12:32:23;;;;;;;;;;;;;;;21.25;59.00;100464.03;10502709;28;19924;-68
2022/07/11 12:37:37;;;;;;;;;;;;;;;20.66;61.10;100472.31;10502688;28;19924;-68
2022/07/11 12:42:41;;;;;;;;;;;;;;;19.84;63.93;100484.19;10502270;28;20245;-67
2022/07/11 12:47:45;;;;;;;;;;;;;;;18.78;76.73;100501.13;10502263;28;19924;-68
2022/07/11 12:52:50;;;;;;;;;;;;;;;17.76;88.43;100525.28;10501996;28;19935;-68
2022/07/11 12:58:08;;;;;;;;;;;;;;;17.28;92.76;100540.09;10501198;28;19924;-69
2022/07/11 13:03:11;;;;;;;;;;;;;;;16.94;100.00;100540.41;10501898;28;20340;-66
2022/07/11 13:08:45;;;;;;;;;;;;;;;16.69;100.00;100543.84;10501630;28;20018;-67
2022/07/11 13:13:51;;;;;;;;;;;;;;;16.57;100.00;100547.72;10501831;28;19985;-65
2022/07/11 13:18:54;;;;;;;;;;;;;;;16.53;100.00;100543.47;10501365;28;19953;-69
2022/07/11 13:23:57;;;;;;;;;;;;;;;16.44;100.00;100550.75;10500967;28;20386;-67
2022/07/11 13:29:01;;;;;;;;;;;;;;;16.38;100.00;100543.06;10501187;28;19925;-66
2022/07/11 13:34:04;;;;;;;;;;;;;;;16.38;100.00;100545.69;10501173;28;19924;-67
2022/07/11 13:39:08;;;;;;;;;;;;;;;16.27;100.00;100542.53;10500826;28;19924;-70
2022/07/11 13:44:12;;;;;;;;;;;;;;;16.19;100.00;100546.25;10500563;28;19924;-71
2022/07/11 13:49:15;;;;;;;;;;;;;;;16.27;100.00;100546.03;10500919;28;19928;-70
2022/07/11 13:54:19;;;;;;;;;;;;;;;16.37;100.00;100534.34;10500820;28;20226;-66
2022/07/11 13:59:23;;;;;;;;;;;;;;;16.53;100.00;100529.53;10500668;28;20047;-69
2022/07/11 14:04:26;;;;;;;;;;;;;;;16.67;100.00;100532.56;10500369;28;19924;-68
2022/07/11 14:09:31;;;;;;;;;;;;;;;17.01;100.00;100541.06;10500857;28;20342;-66
2022/07/11 14:14:35;;;;;;;;;;;;;;;17.33;100.00;100533.78;10508209;28;19935;-71
2022/07/11 14:19:39;;;;;;;;;;;;;;;17.70;100.00;100540.41;10507849;28;19935;-67
2022/07/11 14:24:42;;;;;;;;;;;;;;;18.00;100.00;100516.47;10507613;28;20015;-68
2022/07/11 14:29:47;;;;;;;;;;;;;;;18.26;100.00;100515.47;10507531;28;19925;-66
2022/07/11 14:34:50;;;;;;;;;;;;;;;18.55;100.00;100523.09;10507485;28;19925;-68
2022/07/11 14:39:53;;;;;;;;;;;;;;;18.69;100.00;100515.50;10507071;28;19924;-66
2022/07/11 14:44:57;;;;;;;;;;;;;;;18.90;100.00;100513.78;10507143;28;19928;-68
2022/07/11 14:50:00;;;;;;;;;;;;;;;19.18;100.00;100528.38;10506703;28;19985;-67
2022/07/11 14:55:03;;;;;;;;;;;;;;;19.38;95.98;100517.00;10506573;28;20004;-70
2022/07/11 15:00:09;;;;;;;;;;;;;;;19.65;96.40;100517.56;10506566;28;19935;-66
2022/07/11 15:05:12;;;;;;;;;;;;;;;19.54;96.55;100515.41;10506354;28;19935;-66
2022/07/11 15:15:36;;;;;;;;;;;;;;;19.29;88.39;100518.22;10505890;28;19934;-67
2022/07/11 15:20:39;;;;;;;;;;;;;;;18.99;90.67;100516.03;10505170;28;20348;-71
2022/07/11 15:25:42;;;;;;;;;;;;;;;18.78;91.01;100504.63;10505403;28;19924;-67
2022/07/11 15:30:47;;;;;;;;;;;;;;;19.11;91.07;100510.25;10505348;28;19924;-67
2022/07/11 15:35:50;;;;;;;;;;;;;;;19.56;89.52;100508.28;10505145;28;19924;-68
2022/07/11 15:40:55;;;;;;;;;;;;;;;19.76;87.84;100505.63;10504871;28;20015;-67
2022/07/11 15:46:00;;;;;;;;;;;;;;;19.93;88.55;100504.88;10504549;28;19931;-68
2022/07/11 15:51:03;;;;;;;;;;;;;;;20.01;83.41;100506.22;10504316;28;20243;-68
2022/07/11 15:56:06;;;;;;;;;;;;;;;20.10;78.70;100512.84;10504284;28;19928;-66
2022/07/11 16:01:11;;;;;;;;;;;;;;;20.12;78.86;100522.38;10503730;28;20346;-66
2022/07/11 16:06:14;;;;;;;;;;;;;;;19.99;75.11;100520.38;10503693;28;19932;-65
2022/07/11 16:11:17;;;;;;;;;;;;;;;20.03;73.60;100535.13;10503652;28;19936;-65
2022/07/11 16:16:22;;;;;;;;;;;;;;;19.94;72.62;100544.31;10503485;28;19924;-66
2022/07/11 16:21:28;;;;;;;;;;;;;;;19.74;74.01;100541.72;10502996;28;19967;-68
2022/07/11 16:26:31;;;;;;;;;;;;;;;19.58;73.93;100545.97;10502831;28;19928;-68
2022/07/11 16:31:37;;;;;;;;;;;;;;;19.49;75.13;100541.09;10502676;28;20397;-67
2022/07/11 16:36:40;;;;;;;;;;;;;;;19.36;75.48;100538.13;10502239;28;19932;-66
2022/07/11 16:47:07;;;;;;;;;;;;;;;19.16;74.83;100540.72;10502316;28;19925;-68
2022/07/11 16:52:10;;;;;;;;;;;;;;;19.09;75.63;100536.63;10502037;28;19934;-66
2022/07/11 16:57:15;;;;;;;;;;;;;;;18.86;76.45;100539.34;10502019;28;20322;-64
2022/07/11 17:02:19;;;;;;;;;;;;;;;18.78;76.98;100538.81;10501786;28;19928;-68
2022/07/11 17:07:22;;;;;;;;;;;;;;;18.67;77.81;100542.81;10501425;28;19924;-69
2022/07/11 17:12:25;;;;;;;;;;;;;;;18.58;78.08;100537.91;10501466;28;19935;-72
2022/07/11 17:17:29;;;;;;;;;;;;;;;18.51;78.09;100550.44;10501311;28;19997;-69
2022/07/11 17:22:33;;;;;;;;;;;;;;;18.41;78.45;100551.72;10501292;28;19925;-70
2022/07/11 17:27:41;;;;;;;;;;;;;;;18.33;78.71;100556.38;10501266;28;20231;-68
2022/07/11 17:32:46;;;;;;;;;;;;;;;18.19;78.60;100554.28;10501064;28;19935;-68
2022/07/11 17:37:51;;;;;;;;;;;;;;;18.08;78.96;100556.47;10501133;28;19925;-68
2022/07/11 17:42:55;;;;;;;;;;;;;;;17.97;78.88;100563.00;10500862;28;19936;-73
2022/07/11 17:47:59;;;;;;;;;;;;;;;17.84;79.44;100565.25;10509055;28;20285;-69
2022/07/11 17:53:02;;;;;;;;;;;;;;;17.86;79.92;100566.03;10509299;28;19924;-68
2022/07/11 17:58:06;;;;;;;;;;;;;;;17.80;80.83;100568.91;10509012;28;19924;-71
2022/07/11 18:03:10;;;;;;;;;;;;;;;17.71;81.38;100557.84;10508569;28;19925;-72
2022/07/11 18:08:13;;;;;;;;;;;;;;;17.64;82.13;100557.22;10508550;28;20212;-69
2022/07/11 18:13:16;;;;;;;;;;;;;;;17.70;82.45;100569.28;10508603;28;19924;-71
2022/07/11 18:18:20;;;;;;;;;;;;;;;17.62;83.02;100566.91;10507913;28;20257;-68
2022/07/11 18:23:23;;;;;;;;;;;;;;;17.53;83.30;100566.41;10507617;28;19924;-66
2022/07/11 18:28:26;;;;;;;;;;;;;;;17.49;84.18;100570.91;10507716;28;19958;-68
2022/07/11 18:33:31;;;;;;;;;;;;;;;17.44;84.11;100578.03;10507619;28;19942;-68
2022/07/11 18:41:11;;;;;;;;;;;;;;;17.32;84.87;100571.41;10507476;28;19924;-67
2022/07/11 18:44:01;;;;;;;;;;;;;;;17.26;85.72;100581.28;10507098;28;19925;-71
2022/07/11 18:49:05;;;;;;;;;;;;;;;17.22;86.55;100579.69;10506968;28;19924;-68
2022/07/11 18:54:09;;;;;;;;;;;;;;;17.18;86.80;100584.19;10506797;28;19925;-68
2022/07/11 18:59:12;;;;;;;;;;;;;;;17.11;86.98;100581.78;10505746;28;19924;-66
2022/07/11 19:04:17;;;;;;;;;;;;;;;17.07;87.38;100585.41;10506286;28;20348;-69
2022/07/11 19:09:21;;;;;;;;;;;;;;;17.02;87.42;100588.19;10506196;28;19989;-68
2022/07/11 19:14:24;;;;;;;;;;;;;;;17.02;87.37;100584.72;10506077;28;20223;-68
2022/07/11 19:19:28;;;;;;;;;;;;;;;16.99;87.42;100582.19;10505796;28;19924;-66
2022/07/11 19:24:32;;;;;;;;;;;;;;;16.83;88.45;100581.84;10505370;28;20346;-73
2022/07/11 19:29:35;;;;;;;;;;;;;;;16.86;87.85;100583.50;10505411;28;19925;-68
2022/07/11 19:34:46;;;;;;;;;;;;;;;16.84;87.60;100588.78;10505216;28;19925;-70
2022/07/11 19:39:49;;;;;;;;;;;;;;;16.83;87.82;100587.06;10505037;28;19928;-69
2022/07/11 19:44:52;;;;;;;;;;;;;;;16.75;88.41;100591.72;10504783;28;19925;-68
2022/07/11 19:49:56;;;;;;;;;;;;;;;16.63;89.10;100591.22;10504647;28;19948;-73
2022/07/11 20:00:20;;;;;;;;;;;;;;;16.57;89.23;100594.91;10504411;28;19924;-71
2022/07/11 20:05:24;;;;;;;;;;;;;;;16.50;89.48;100592.53;10503852;28;19925;-67
2022/07/11 20:10:27;;;;;;;;;;;;;;;16.48;89.64;100594.34;10503375;28;20002;-68
2022/07/11 20:15:30;;;;;;;;;;;;;;;16.45;90.17;100597.00;10503457;28;19925;-72
2022/07/11 20:20:35;;;;;;;;;;;;;;;16.45;90.45;100597.84;10503201;28;20254;-67
2022/07/11 20:25:38;;;;;;;;;;;;;;;16.37;90.10;100596.38;10503074;28;19931;-68
2022/07/11 20:30:41;;;;;;;;;;;;;;;16.37;90.40;100599.00;10502966;28;19924;-66
2022/07/11 20:35:45;;;;;;;;;;;;;;;16.38;90.73;100598.06;10502655;28;20316;-70
2022/07/11 20:40:49;;;;;;;;;;;;;;;16.28;90.72;100600.13;10502532;28;19928;-68
2022/07/11 20:45:52;;;;;;;;;;;;;;;16.15;91.29;100598.78;10502314;28;20061;-70
2022/07/11 20:50:56;;;;;;;;;;;;;;;16.13;91.35;100598.78;10502257;28;19924;-69
2022/07/11 20:55:59;;;;;;;;;;;;;;;16.08;90.98;100603.31;10501970;28;19946;-69
2022/07/11 21:01:02;;;;;;;;;;;;;;;16.06;91.23;100588.56;10501789;28;20371;-68
2022/07/11 21:06:07;;;;;;;;;;;;;;;16.04;91.27;100591.22;10501456;28;19924;-68
2022/07/11 21:11:10;;;;;;;;;;;;;;;15.98;91.57;100594.00;10501661;28;19935;-68
2022/07/11 21:16:13;;;;;;;;;;;;;;;15.98;91.68;100593.13;10501553;28;19928;-69
2022/07/11 21:21:17;;;;;;;;;;;;;;;15.95;91.92;100599.34;10500760;28;19934;-70
2022/07/11 21:26:20;;;;;;;;;;;;;;;15.87;92.85;100605.69;10501174;28;19934;-71
2022/07/11 21:31:23;;;;;;;;;;;;;;;15.86;93.11;100604.81;10501622;28;19924;-72
2022/07/11 21:36:28;;;;;;;;;;;;;;;15.84;93.38;100606.63;10501160;28;20334;-72
2022/07/11 21:41:31;;;;;;;;;;;;;;;15.82;93.70;100605.81;10501374;28;19925;-71
2022/07/11 21:46:34;;;;;;;;;;;;;;;15.81;93.88;100606.69;10500797;28;19924;-71
2022/07/11 21:51:38;;;;;;;;;;;;;;;15.76;94.31;100608.59;10500820;28;19934;-68
2022/07/11 21:56:41;;;;;;;;;;;;;;;15.71;94.66;100604.38;10500672;28;19924;-69
2022/07/11 22:01:44;;;;;;;;;;;;;;;15.73;94.63;100613.03;10500588;28;19934;-68
2022/07/11 22:06:48;;;;;;;;;;;;;;;15.72;94.87;100601.72;10500510;28;19934;-69
2022/07/11 22:11:51;;;;;;;;;;;;;;;15.66;96.20;100611.50;10500461;28;19925;-67
2022/07/11 22:16:54;;;;;;;;;;;;;;;15.73;96.18;100611.28;10500401;28;19924;-66
2022/07/11 22:21:59;;;;;;;;;;;;;;;15.73;96.41;100611.28;10500000;28;20330;-70
2022/07/11 22:27:08;;;;;;;;;;;;;;;15.68;97.31;100622.78;10500555;28;20054;-73
2022/07/11 22:32:11;;;;;;;;;;;;;;;15.59;98.17;100613.41;10503012;28;20265;-67
2022/07/11 22:37:16;;;;;;;;;;;;;;;15.59;98.64;100616.03;10507464;28;20007;-68
2022/07/11 22:42:19;;;;;;;;;;;;;;;15.59;99.22;100616.03;10507316;28;20024;-68
2022/07/11 22:47:22;;;;;;;;;;;;;;;15.60;99.53;100628.22;10507127;28;20065;-71
2022/07/11 22:52:43;;;;;;;;;;;;;;;15.60;100.00;100620.34;10507009;28;20032;-71
2022/07/11 22:57:51;;;;;;;;;;;;;;;15.58;100.00;100624.78;10506974;28;19968;-72
2022/07/11 23:02:54;;;;;;;;;;;;;;;15.60;100.00;100628.22;10506654;28;20417;-68
2022/07/11 23:08:00;;;;;;;;;;;;;;;15.58;100.00;100630.00;10506351;28;20015;-67
2022/07/11 23:13:03;;;;;;;;;;;;;;;15.60;100.00;100628.22;10506295;28;19956;-68
2022/07/11 23:18:06;;;;;;;;;;;;;;;15.54;100.00;100625.75;10506029;28;20085;-69
2022/07/11 23:23:11;;;;;;;;;;;;;;;15.58;100.00;100630.00;10505565;28;19999;-68
2022/07/11 23:28:14;;;;;;;;;;;;;;;15.53;100.00;100629.25;10505521;28;20452;-75
2022/07/11 23:33:17;;;;;;;;;;;;;;;15.54;100.00;100630.13;10505551;28;20011;-72
2022/07/11 23:38:21;;;;;;;;;;;;;;;15.49;100.00;100638.13;10505107;28;20031;-69
2022/07/11 23:43:24;;;;;;;;;;;;;;;15.48;100.00;100633.75;10504550;28;20007;-70
2022/07/11 23:48:27;;;;;;;;;;;;;;;15.46;100.00;100622.47;10504767;28;20250;-68
2022/07/11 23:53:31;;;;;;;;;;;;;;;15.46;100.00;100622.47;10504544;28;19935;-69
2022/07/11 23:58:34;;;;;;;;;;;;;;;15.39;100.00;100628.75;10504356;28;19935;-70
